Time;durP1;ratioP1;P1;durP2;ratioP2;P2;SDS_P1;SDS_P2;PMS_P1;PMS_P2;Temp;Humidity;BMP_temperature;BMP_pressure;BME280_temperature;BME280_humidity;BME280_pressure;Samples;Min_cycle;Max_cycle;Signal;HPM_P1;HPM_P2
2023/05/16 00:00:20;;;;;;;37.60;28.02;;;;;;;13.88;100.00;98052.50;5053103;28;20272;-62
2023/05/16 00:02:46;;;;;;;37.20;27.17;;;;;;;13.93;100.00;98054.72;5052244;28;20178;-62
2023/05/16 00:05:13;;;;;;;42.80;29.20;;;;;;;13.85;100.00;98031.16;5052949;28;20181;-62
2023/05/16 00:07:42;;;;;;;38.33;27.80;;;;;;;14.11;100.00;98068.72;5052834;28;20174;-62
2023/05/16 00:10:08;;;;;;;36.47;26.30;;;;;;;13.74;100.00;98000.06;5052829;28;20217;-62
2023/05/16 00:12:35;;;;;;;40.78;27.60;;;;;;;14.09;100.00;98068.84;5052796;28;20205;-62
2023/05/16 00:15:01;;;;;;;36.58;27.95;;;;;;;14.12;100.00;98065.16;5052720;28;20202;-62
2023/05/16 00:17:27;;;;;;;40.75;28.98;;;;;;;13.58;100.00;97981.53;5070054;28;20710;-62
2023/05/16 00:19:57;;;;;;;38.58;28.88;;;;;;;13.73;100.00;98001.84;5070150;28;20193;-62
2023/05/16 00:22:26;;;;;;;39.58;28.67;;;;;;;14.12;100.00;98057.34;5070129;28;20184;-62
2023/05/16 00:24:51;;;;;;;44.03;28.63;;;;;;;14.04;100.00;98046.78;5070145;28;20181;-62
2023/05/16 00:27:16;;;;;;;41.85;29.20;;;;;;;13.73;100.00;98022.66;5049961;28;20189;-62
2023/05/16 00:29:42;;;;;;;39.25;29.10;;;;;;;13.91;100.00;98041.00;5050074;28;20287;-62
2023/05/16 00:32:07;;;;;;;44.22;30.23;;;;;;;14.00;100.00;98055.81;5050001;28;20549;-62
2023/05/16 00:34:33;;;;;;;44.38;29.92;;;;;;;13.85;100.00;98041.56;5049905;28;20634;-62
2023/05/16 00:36:59;;;;;;;42.20;28.23;;;;;;;13.74;100.00;98024.28;5049939;28;20564;-61
2023/05/16 00:39:24;;;;;;;38.67;28.77;;;;;;;13.98;100.00;98052.50;5049910;28;20185;-62
2023/05/16 00:41:50;;;;;;;45.92;29.92;;;;;;;13.85;100.00;98041.56;5049875;28;20232;-62
2023/05/16 00:44:16;;;;;;;38.95;28.48;;;;;;;13.75;100.00;98012.94;5049845;28;20228;-61
2023/05/16 00:46:41;;;;;;;42.72;29.67;;;;;;;13.99;100.00;98052.38;5049847;28;20201;-62
2023/05/16 00:49:08;;;;;;;44.00;30.00;;;;;;;13.97;100.00;98058.69;5034085;28;20253;-62
2023/05/16 00:51:34;;;;;;;46.25;30.33;;;;;;;13.45;100.00;97967.97;5029765;28;20681;-62
2023/05/16 00:54:00;;;;;;;45.53;30.85;;;;;;;13.63;100.00;98016.59;5029783;28;20764;-62
2023/05/16 00:56:25;;;;;;;46.10;32.25;;;;;;;13.81;100.00;98047.97;5029812;28;20265;-62
2023/05/16 00:58:50;;;;;;;51.53;32.58;;;;;;;13.55;100.00;98019.06;5029677;28;20244;-62
2023/05/16 01:01:17;;;;;;;50.00;32.10;;;;;;;13.73;100.00;98053.03;5029844;28;20629;-62
2023/05/16 01:03:45;;;;;;;47.88;32.35;;;;;;;13.65;100.00;98035.47;5031509;28;20261;-62
2023/05/16 01:06:11;;;;;;;47.88;33.85;;;;;;;13.69;100.00;98042.06;5049863;28;20248;-62
2023/05/16 01:08:37;;;;;;;41.97;33.20;;;;;;;13.44;100.00;98000.13;5049626;28;20189;-61
2023/05/16 01:11:25;;;;;;;48.88;31.25;;;;;;;13.71;100.00;98034.16;5049584;28;20181;-61
2023/05/16 01:13:56;;;;;;;45.72;31.63;;;;;;;13.74;100.00;98039.91;5051701;28;20628;-61
2023/05/16 01:17:00;;;;;;;48.00;32.65;;;;;;;13.29;100.00;97984.09;5053675;28;20536;-61
2023/05/16 01:19:47;;;;;;;46.70;31.30;;;;;;;13.66;100.00;98037.13;4974759;28;20200;-61
2023/05/16 01:22:47;;;;;;;45.53;31.17;;;;;;;13.71;100.00;98029.75;4981917;28;20250;-61
2023/05/16 01:25:44;;;;;;;44.92;31.13;;;;;;;13.78;100.00;98030.88;4956236;28;20632;-61
2023/05/16 01:28:11;;;;;;;41.80;29.58;;;;;;;13.37;100.00;97941.84;4955333;28;20181;-62
2023/05/16 01:30:40;;;;;;;43.72;29.13;;;;;;;13.69;100.00;97979.66;4955404;29;20224;-62
2023/05/16 01:33:06;;;;;;;43.47;29.98;;;;;;;13.95;100.00;98021.59;4955345;29;20192;-62
2023/05/16 01:35:32;;;;;;;49.38;29.92;;;;;;;13.32;100.00;97938.81;4955152;29;20249;-62
2023/05/16 01:38:11;;;;;;;43.90;29.13;;;;;;;13.69;100.00;98010.03;4955231;28;20644;-62
2023/05/16 01:41:08;;;;;;;44.97;30.33;;;;;;;13.65;100.00;98009.47;4955209;29;20200;-62
2023/05/16 01:43:38;;;;;;;46.58;31.17;;;;;;;13.26;100.00;97928.97;4916971;29;20186;-62
2023/05/16 01:46:11;;;;;;;51.38;32.65;;;;;;;13.35;100.00;97925.59;4916951;29;20229;-62
2023/05/16 01:48:52;;;;;;;42.75;30.98;;;;;;;13.92;100.00;98011.44;4916909;29;20569;-62
2023/05/16 01:51:21;;;;;;;43.55;30.00;;;;;;;13.49;100.00;97941.63;4916811;29;20713;-62
2023/05/16 01:53:48;;;;;;;41.00;28.23;;;;;;;13.29;100.00;97913.94;4916678;29;20238;-62
2023/05/16 01:56:15;;;;;;;44.17;31.67;;;;;;;13.65;100.00;97985.28;4992245;28;20190;-62
2023/05/16 01:58:41;;;;;;;43.08;30.20;;;;;;;13.20;100.00;97908.72;5013030;28;20721;-62
2023/05/16 02:01:07;;;;;;;45.95;31.95;;;;;;;13.19;100.00;97901.88;5013178;28;20285;-62
2023/05/16 02:03:33;;;;;;;44.00;31.10;;;;;;;13.52;100.00;97940.50;5013101;28;20175;-62
2023/05/16 02:05:59;;;;;;;45.35;32.35;;;;;;;13.30;100.00;97887.00;5013047;28;20546;-62
2023/05/16 02:08:30;;;;;;;40.95;28.70;;;;;;;13.53;100.00;97936.97;5012965;28;20254;-62
2023/05/16 02:10:55;;;;;;;45.00;30.92;;;;;;;13.69;100.00;97969.28;5013026;28;20627;-62
2023/05/16 02:13:20;;;;;;;42.60;29.35;;;;;;;13.29;100.00;97923.53;5012971;28;20269;-62
2023/05/16 02:15:46;;;;;;;35.50;27.33;;;;;;;13.44;100.00;97963.75;5012845;28;20199;-62
2023/05/16 02:18:12;;;;;;;37.90;26.73;;;;;;;13.27;100.00;97912.41;5012907;28;20179;-62
2023/05/16 02:20:38;;;;;;;34.53;26.00;;;;;;;13.05;100.00;97877.09;5036577;28;20286;-62
2023/05/16 02:23:06;;;;;;;32.72;25.30;;;;;;;13.21;100.00;97889.56;5054458;28;20189;-62
2023/05/16 02:25:32;;;;;;;36.83;25.50;;;;;;;13.30;100.00;97915.56;5054092;28;20178;-62
2023/05/16 02:27:57;;;;;;;36.67;26.05;;;;;;;12.97;100.00;97876.13;5054701;28;20166;-62
2023/05/16 02:30:22;;;;;;;35.60;25.58;;;;;;;13.21;100.00;97905.16;5054658;28;20593;-62
2023/05/16 02:32:48;;;;;;;38.30;25.55;;;;;;;13.50;100.00;97934.63;5054604;28;20276;-62
2023/05/16 02:35:14;;;;;;;36.58;24.60;;;;;;;13.53;100.00;97937.78;5054498;28;20247;-62
2023/05/16 02:37:40;;;;;;;35.50;25.15;;;;;;;13.37;100.00;97915.88;5054535;28;20181;-62
2023/05/16 02:40:09;;;;;;;38.47;24.95;;;;;;;13.28;100.00;97911.47;5054512;28;20174;-62
2023/05/16 02:42:34;;;;;;;39.08;24.40;;;;;;;13.44;100.00;97949.00;5054681;28;20174;-62
2023/05/16 02:45:00;;;;;;;39.50;25.17;;;;;;;13.42;100.00;97955.28;5054667;28;20238;-62
2023/05/16 02:47:25;;;;;;;42.22;26.38;;;;;;;13.19;100.00;97923.47;5054344;28;20256;-62
2023/05/16 02:49:53;;;;;;;36.47;26.55;;;;;;;13.25;100.00;97935.13;5054322;28;20264;-62
2023/05/16 02:52:19;;;;;;;42.58;27.73;;;;;;;13.33;100.00;97924.88;5054292;28;20174;-62
2023/05/16 02:54:45;;;;;;;43.38;29.05;;;;;;;13.41;100.00;97928.44;5054087;28;20350;-62
2023/05/16 02:57:11;;;;;;;43.42;29.05;;;;;;;13.37;100.00;97927.06;5054117;28;20265;-62
2023/05/16 02:59:36;;;;;;;41.40;27.77;;;;;;;12.89;100.00;97863.75;5053763;28;20202;-62
2023/05/16 03:02:02;;;;;;;42.13;29.58;;;;;;;13.04;100.00;97879.81;5053781;28;20181;-62
2023/05/16 03:04:28;;;;;;;47.20;31.42;;;;;;;12.97;100.00;97868.34;5053994;28;20181;-62
2023/05/16 03:06:53;;;;;;;46.25;31.13;;;;;;;13.36;100.00;97948.81;5053964;28;20249;-62
2023/05/16 03:09:19;;;;;;;42.15;29.30;;;;;;;13.28;100.00;97933.09;5053911;28;20545;-62
2023/05/16 03:11:45;;;;;;;47.90;31.50;;;;;;;13.34;100.00;97945.53;5053880;28;20268;-62
2023/05/16 03:14:11;;;;;;;47.58;31.50;;;;;;;13.10;100.00;97907.88;5053755;28;20205;-62
2023/05/16 03:16:37;;;;;;;42.25;29.90;;;;;;;13.41;100.00;97969.22;5053780;28;20174;-62
2023/05/16 03:19:03;;;;;;;50.00;30.55;;;;;;;12.84;100.00;97888.50;5053771;28;20186;-62
2023/05/16 03:21:30;;;;;;;51.40;32.97;;;;;;;12.78;100.00;97887.22;5053680;28;20174;-62
2023/05/16 03:23:55;;;;;;;52.78;31.65;;;;;;;13.08;100.00;97930.56;5053950;28;20251;-62
2023/05/16 03:26:21;;;;;;;51.78;32.22;;;;;;;13.03;100.00;97919.75;5053576;28;20640;-62
2023/05/16 03:28:47;;;;;;;50.15;32.63;;;;;;;13.20;100.00;97939.91;5051436;28;20599;-62
2023/05/16 03:31:12;;;;;;;49.85;31.00;;;;;;;12.93;100.00;97900.66;5053431;28;20177;-62
2023/05/16 03:33:38;;;;;;;44.95;31.52;;;;;;;13.42;100.00;97965.66;5053486;28;20188;-62
2023/05/16 03:36:04;;;;;;;46.53;31.45;;;;;;;12.98;100.00;97882.97;5052583;28;20225;-62
2023/05/16 03:38:29;;;;;;;46.75;32.28;;;;;;;12.96;100.00;97877.09;5052829;28;20652;-62
2023/05/16 03:40:55;;;;;;;53.53;32.88;;;;;;;12.98;100.00;97882.97;5053287;28;20178;-62
2023/05/16 03:43:20;;;;;;;46.85;32.10;;;;;;;13.43;100.00;97962.09;5053309;28;20174;-62
2023/05/16 03:45:46;;;;;;;45.22;32.03;;;;;;;13.28;100.00;97937.44;5053195;28;20526;-62
2023/05/16 03:48:11;;;;;;;49.58;31.77;;;;;;;13.60;100.00;97974.47;5050637;28;20221;-62
2023/05/16 03:50:37;;;;;;;47.03;33.25;;;;;;;13.70;100.00;97970.09;5051029;28;20568;-62
2023/05/16 03:53:03;;;;;;;47.40;30.90;;;;;;;13.35;100.00;97902.19;5050637;28;20296;-62
2023/05/16 03:55:29;;;;;;;45.40;32.25;;;;;;;13.71;100.00;97971.75;5050611;28;20205;-62
2023/05/16 03:57:55;;;;;;;46.88;32.05;;;;;;;13.53;100.00;97947.38;5050612;28;20193;-62
2023/05/16 04:00:21;;;;;;;43.78;30.67;;;;;;;13.80;100.00;97971.75;5050368;28;20229;-62
2023/05/16 04:02:46;;;;;;;47.40;30.85;;;;;;;13.88;100.00;97986.69;5050404;28;20190;-63
2023/05/16 04:05:12;;;;;;;45.08;30.98;;;;;;;13.95;100.00;97991.19;5050461;28;20272;-63
2023/05/16 04:07:38;;;;;;;43.40;30.50;;;;;;;13.69;100.00;97934.63;5050460;28;20600;-63
2023/05/16 04:10:04;;;;;;;43.58;30.33;;;;;;;13.46;100.00;97896.84;5050668;28;20664;-63
2023/05/16 04:12:30;;;;;;;45.97;29.40;;;;;;;13.98;100.00;97969.28;5050254;28;20738;-63
2023/05/16 04:14:55;;;;;;;45.08;30.67;;;;;;;13.57;100.00;97891.53;5010341;28;20223;-64
2023/05/16 04:17:21;;;;;;;40.78;29.20;;;;;;;13.87;100.00;97930.41;5010622;28;20662;-63
2023/05/16 04:19:46;;;;;;;42.95;31.02;;;;;;;13.78;100.00;97900.03;5025335;28;20680;-63
2023/05/16 04:22:11;;;;;;;41.42;29.65;;;;;;;14.27;100.00;97972.72;5030284;28;20699;-63
2023/05/16 04:24:37;;;;;;;47.42;31.13;;;;;;;14.36;100.00;97969.31;4990737;28;20258;-63
2023/05/16 04:27:03;;;;;;;42.25;28.83;;;;;;;14.43;100.00;97967.78;4990725;28;20286;-63
2023/05/16 04:29:30;;;;;;;43.10;31.00;;;;;;;14.48;100.00;97957.78;4990718;28;20221;-63
2023/05/16 04:31:55;;;;;;;45.08;30.58;;;;;;;14.37;100.00;97937.09;4990743;28;20180;-62
2023/05/16 04:34:22;;;;;;;46.97;31.00;;;;;;;14.42;100.00;97934.91;4990615;28;20282;-63
2023/05/16 04:36:47;;;;;;;42.63;29.50;;;;;;;14.58;100.00;97958.59;4990590;28;20187;-63
2023/05/16 04:39:12;;;;;;;40.08;29.50;;;;;;;14.48;100.00;97931.75;4990642;28;20568;-63
2023/05/16 04:41:38;;;;;;;51.85;32.15;;;;;;;14.37;100.00;97906.72;4990869;28;20196;-63
2023/05/16 04:44:03;;;;;;;49.15;31.92;;;;;;;14.70;100.00;97950.44;4976364;28;20270;-63
2023/05/16 04:46:29;;;;;;;37.97;28.00;;;;;;;14.36;100.00;97897.22;4999928;28;20744;-63
2023/05/16 04:48:55;;;;;;;26.92;19.50;;;;;;;14.86;100.00;97976.72;5009923;28;20206;-63
2023/05/16 04:51:21;;;;;;;23.55;19.10;;;;;;;14.65;100.00;97938.81;5010178;28;20672;-63
2023/05/16 04:53:47;;;;;;;23.73;18.70;;;;;;;14.58;100.00;97919.53;5010087;28;20191;-63
2023/05/16 04:56:12;;;;;;;23.48;17.77;;;;;;;14.42;100.00;97901.91;5010092;28;20198;-63
2023/05/16 04:58:38;;;;;;;24.17;18.13;;;;;;;14.58;100.00;97915.13;5009969;28;20206;-63
2023/05/16 05:01:03;;;;;;;25.63;18.27;;;;;;;14.59;100.00;97903.75;5013934;28;20174;-63
2023/05/16 05:03:29;;;;;;;29.35;20.35;;;;;;;14.59;100.00;97893.31;5052085;28;20187;-63
2023/05/16 05:05:54;;;;;;;41.55;23.38;;;;;;;14.99;100.00;97948.56;5052005;28;20272;-63
2023/05/16 05:08:20;;;;;;;53.03;30.80;;;;;;;15.26;100.00;97977.25;5051987;28;20220;-63
2023/05/16 05:10:46;;;;;;;50.00;34.30;;;;;;;15.38;100.00;97985.72;5051974;28;20643;-63
2023/05/16 05:13:11;;;;;;;51.90;34.95;;;;;;;15.26;100.00;97953.78;5051223;28;20254;-63
2023/05/16 05:15:37;;;;;;;55.22;35.17;;;;;;;15.54;100.00;97991.13;5051691;28;20193;-63
2023/05/16 05:18:03;;;;;;;61.92;34.63;;;;;;;15.26;100.00;97935.56;5051713;28;20173;-63
2023/05/16 05:20:28;;;;;;;49.17;35.08;;;;;;;15.33;100.00;97935.84;5051386;28;20201;-63
2023/05/16 05:22:54;;;;;;;54.38;35.40;;;;;;;15.45;100.00;97939.88;5051761;28;20174;-63
2023/05/16 05:25:19;;;;;;;56.45;35.97;;;;;;;15.65;100.00;97946.59;5052145;28;20308;-63
2023/05/16 05:27:45;;;;;;;49.55;33.53;;;;;;;15.86;100.00;97981.06;5051858;28;20173;-63
2023/05/16 05:30:10;;;;;;;52.97;33.95;;;;;;;15.72;100.00;97932.00;5049198;28;20692;-63
2023/05/16 05:32:36;;;;;;;44.60;31.38;;;;;;;16.01;100.00;97984.78;5049312;28;20735;-63
2023/05/16 05:35:02;;;;;;;47.95;31.30;;;;;;;15.79;100.00;97939.09;5049346;28;20601;-63
2023/05/16 05:37:28;;;;;;;46.08;30.60;;;;;;;15.89;100.00;97944.22;5049314;28;20196;-63
2023/05/16 05:39:54;;;;;;;44.80;29.88;;;;;;;16.02;100.00;97983.81;5049284;28;20259;-63
2023/05/16 05:42:20;;;;;;;40.65;25.85;;;;;;;15.98;100.00;97972.03;5048997;28;20660;-63
2023/05/16 05:44:45;;;;;;;46.92;27.77;;;;;;;15.94;100.00;97958.47;5049265;28;20232;-62
2023/05/16 05:47:11;;;;;;;40.67;27.70;;;;;;;15.88;100.00;97953.84;5049309;28;20177;-62
2023/05/16 05:49:36;;;;;;;37.90;27.67;;;;;;;15.90;100.00;97957.13;5048855;28;20193;-62
2023/05/16 05:52:02;;;;;;;42.53;29.52;;;;;;;16.00;100.00;97973.53;5049151;28;20193;-62
2023/05/16 05:54:27;;;;;;;49.05;30.77;;;;;;;16.01;100.00;97980.41;5049109;28;20291;-62
2023/05/16 05:56:53;;;;;;;50.25;31.23;;;;;;;15.48;100.00;97893.47;5049113;28;20186;-62
2023/05/16 05:59:18;;;;;;;52.50;32.13;;;;;;;15.96;100.00;97966.13;5029243;28;20205;-62
2023/05/16 06:01:44;;;;;;;49.90;32.10;;;;;;;15.70;100.00;97928.72;5032855;28;20672;-62
2023/05/16 06:04:10;;;;;;;53.40;32.05;;;;;;;15.99;100.00;97971.06;5032899;28;20194;-63
2023/05/16 06:06:36;;;;;;;46.10;29.95;;;;;;;15.90;100.00;97951.91;5032669;28;20195;-63
2023/05/16 06:09:02;;;;;;;43.17;29.45;;;;;;;15.75;100.00;97937.72;5032319;28;20259;-61
2023/05/16 06:11:27;;;;;;;43.40;29.52;;;;;;;15.59;100.00;97918.50;5032770;28;20229;-63
2023/05/16 06:13:53;;;;;;;40.88;28.45;;;;;;;15.92;100.00;97985.69;4992039;28;20203;-63
2023/05/16 06:16:19;;;;;;;37.55;28.25;;;;;;;15.68;100.00;97944.50;4993322;28;20226;-63
2023/05/16 06:18:44;;;;;;;45.50;26.25;;;;;;;15.82;100.00;97971.88;4993207;28;20260;-63
2023/05/16 06:21:10;;;;;;;32.65;25.02;;;;;;;15.83;100.00;97976.13;4993239;28;20179;-63
2023/05/16 06:23:35;;;;;;;34.00;25.52;;;;;;;15.59;100.00;97948.03;5007510;28;20252;-63
2023/05/16 06:26:02;;;;;;;37.88;25.63;;;;;;;15.88;100.00;97990.38;5012715;28;20277;-63
2023/05/16 06:28:27;;;;;;;39.47;26.05;;;;;;;15.43;100.00;97900.06;5012607;28;20191;-63
2023/05/16 06:30:53;;;;;;;39.28;27.75;;;;;;;15.64;100.00;97940.56;5027347;28;20654;-63
2023/05/16 06:33:18;;;;;;;40.03;27.00;;;;;;;15.39;100.00;97899.56;5032450;28;20198;-63
2023/05/16 06:35:44;;;;;;;39.42;25.90;;;;;;;15.88;100.00;97974.72;5032249;28;20202;-63
2023/05/16 06:38:09;;;;;;;38.65;25.77;;;;;;;15.74;100.00;97943.91;5032321;28;20262;-63
2023/05/16 06:40:35;;;;;;;37.50;25.55;;;;;;;15.51;100.00;97881.94;5032159;28;20196;-63
2023/05/16 06:43:00;;;;;;;33.88;25.67;;;;;;;15.57;100.00;97876.13;5032225;28;20178;-63
2023/05/16 06:45:26;;;;;;;35.20;24.25;;;;;;;16.04;100.00;97956.59;5048318;28;20185;-63
2023/05/16 06:47:51;;;;;;;38.35;24.58;;;;;;;15.92;100.00;97933.50;5054407;28;20181;-63
2023/05/16 06:50:17;;;;;;;36.30;23.25;;;;;;;15.87;100.00;97918.28;5054337;28;20173;-63
2023/05/16 06:52:42;;;;;;;33.55;22.42;;;;;;;16.17;100.00;97958.84;5054256;28;20644;-63
2023/05/16 06:55:08;;;;;;;31.40;22.58;;;;;;;15.94;100.00;97913.28;5054187;28;20204;-61
2023/05/16 06:57:34;;;;;;;26.75;22.48;;;;;;;16.16;100.00;97946.75;5053925;28;20247;-63
2023/05/16 06:59:59;;;;;;;28.83;20.80;;;;;;;15.69;100.00;97875.72;5053972;28;20697;-63
2023/05/16 07:02:25;;;;;;;30.98;20.98;;;;;;;15.74;100.00;97907.41;5053873;28;20269;-63
2023/05/16 07:04:50;;;;;;;26.55;19.83;;;;;;;15.44;100.00;97876.47;5053891;28;20269;-62
2023/05/16 07:07:16;;;;;;;28.80;19.98;;;;;;;15.49;100.00;97876.03;5054027;28;20624;-62
2023/05/16 07:09:42;;;;;;;27.02;20.05;;;;;;;16.04;100.00;97953.19;5053967;28;20174;-63
2023/05/16 07:12:08;;;;;;;30.65;19.10;;;;;;;16.20;100.00;97969.00;5053528;28;20181;-63
2023/05/16 07:14:33;;;;;;;27.60;19.75;;;;;;;15.93;100.00;97919.47;5053782;28;20197;-63
2023/05/16 07:16:58;;;;;;;26.45;19.45;;;;;;;16.20;100.00;97951.50;5053660;28;20260;-63
2023/05/16 07:19:24;;;;;;;27.50;19.92;;;;;;;15.88;100.00;97870.38;5053778;28;20611;-63
2023/05/16 07:21:50;;;;;;;27.15;20.38;;;;;;;16.03;100.00;97889.72;5053635;28;20268;-63
2023/05/16 07:24:15;;;;;;;28.85;19.98;;;;;;;16.17;100.00;97883.13;5053673;28;20333;-63
2023/05/16 07:26:40;;;;;;;28.48;20.05;;;;;;;16.42;100.00;97908.47;5053643;28;20712;-63
2023/05/16 07:29:06;;;;;;;28.40;21.27;;;;;;;16.63;100.00;97946.34;5053492;28;20169;-63
2023/05/16 07:31:31;;;;;;;23.83;18.23;;;;;;;16.69;100.00;97937.88;5053289;28;20387;-63
2023/05/16 07:33:57;;;;;;;23.30;18.55;;;;;;;16.76;100.00;97931.06;5053252;28;20177;-63
2023/05/16 07:36:22;;;;;;;29.17;20.45;;;;;;;16.88;100.00;97928.97;5053289;28;20209;-63
2023/05/16 07:38:48;;;;;;;24.30;19.25;;;;;;;16.52;100.00;97872.63;5053434;28;20165;-63
2023/05/16 07:41:13;;;;;;;25.05;19.23;;;;;;;16.97;100.00;97944.53;5053316;28;20593;-63
2023/05/16 07:43:38;;;;;;;24.30;17.65;;;;;;;16.89;100.00;97933.22;5052663;28;20174;-63
2023/05/16 07:46:04;;;;;;;23.67;17.73;;;;;;;16.62;100.00;97894.25;5052026;28;20188;-63
2023/05/16 07:48:30;;;;;;;21.08;17.05;;;;;;;16.68;100.00;97891.81;5053273;28;20184;-63
2023/05/16 07:50:55;;;;;;;26.15;18.85;;;;;;;16.93;100.00;97926.72;5052298;28;20250;-63
2023/05/16 07:53:21;;;;;;;28.33;18.92;;;;;;;16.61;100.00;97895.22;5053425;28;20172;-63
2023/05/16 07:55:47;;;;;;;29.77;20.15;;;;;;;16.63;100.00;97914.16;5053020;28;20569;-61
2023/05/16 07:58:13;;;;;;;26.23;19.25;;;;;;;16.65;100.00;97901.75;5053033;28;20180;-61
2023/05/16 08:00:38;;;;;;;24.25;18.10;;;;;;;16.56;100.00;97876.56;5052635;28;20193;-62
2023/05/16 08:03:05;;;;;;;24.73;17.83;;;;;;;16.42;100.00;97856.22;5053249;28;20587;-62
2023/05/16 08:05:30;;;;;;;26.23;19.88;;;;;;;16.80;100.00;97914.06;5052899;28;20185;-61
2023/05/16 08:07:56;;;;;;;27.67;18.80;;;;;;;16.31;100.00;97836.41;5052853;28;20281;-62
2023/05/16 08:10:22;;;;;;;21.92;19.55;;;;;;;16.69;100.00;97922.22;5052831;28;20235;-61
2023/05/16 08:12:48;;;;;;;28.30;19.42;;;;;;;16.58;100.00;97901.56;5052801;28;20260;-62
2023/05/16 08:15:14;;;;;;;25.58;19.80;;;;;;;16.57;100.00;97899.91;5052656;28;20213;-62
2023/05/16 08:17:39;;;;;;;23.05;19.48;;;;;;;16.62;100.00;97886.41;5052701;28;20546;-62
2023/05/16 08:20:06;;;;;;;27.25;20.92;;;;;;;16.41;100.00;97852.00;5052701;28;20534;-62
2023/05/16 08:22:32;;;;;;;29.55;20.52;;;;;;;16.88;100.00;97900.22;5051838;28;20181;-62
2023/05/16 08:24:59;;;;;;;28.60;22.23;;;;;;;16.55;100.00;97838.38;5052488;28;20181;-61
2023/05/16 08:27:25;;;;;;;31.85;21.27;;;;;;;16.99;100.00;97892.13;5052535;28;20181;-62
2023/05/16 08:29:50;;;;;;;33.28;22.13;;;;;;;16.80;100.00;97847.94;5052516;28;20177;-62
2023/05/16 08:32:15;;;;;;;26.83;21.05;;;;;;;16.80;100.00;97827.03;5052137;28;20181;-61
2023/05/16 08:34:41;;;;;;;26.98;20.75;;;;;;;17.13;100.00;97860.16;5052348;28;20201;-62
2023/05/16 08:37:06;;;;;;;27.00;20.80;;;;;;;17.42;100.00;97882.31;5052427;28;20255;-61
2023/05/16 08:39:32;;;;;;;31.92;24.50;;;;;;;17.28;100.00;97864.63;5052354;28;20607;-62
2023/05/16 08:41:58;;;;;;;28.17;23.08;;;;;;;17.51;100.00;97906.72;5052344;28;20180;-62
2023/05/16 08:44:24;;;;;;;27.65;23.77;;;;;;;17.16;100.00;97859.84;5052309;28;20185;-62
2023/05/16 08:46:51;;;;;;;28.17;22.48;;;;;;;17.09;100.00;97851.78;5052311;28;20667;-62
2023/05/16 08:49:17;;;;;;;27.88;22.17;;;;;;;17.13;100.00;97852.31;5052213;28;20270;-62
2023/05/16 08:51:46;;;;;;;29.77;23.73;;;;;;;17.28;100.00;97858.56;5052220;28;20188;-62
2023/05/16 08:54:13;;;;;;;29.83;24.08;;;;;;;17.17;100.00;97830.94;5052074;28;20703;-62
2023/05/16 08:56:40;;;;;;;31.65;24.35;;;;;;;17.50;100.00;97881.53;5052157;28;20180;-62
2023/05/16 08:59:06;;;;;;;29.63;23.60;;;;;;;17.44;100.00;97890.81;5052115;28;20204;-63
2023/05/16 09:01:32;;;;;;;29.45;23.98;;;;;;;17.14;100.00;97819.97;5052116;28;20181;-63
2023/05/16 09:03:59;;;;;;;29.52;24.75;;;;;;;17.26;100.00;97824.72;5052086;28;20169;-63
2023/05/16 09:06:25;;;;;;;30.20;24.35;;;;;;;17.45;100.00;97834.09;5051755;28;20565;-63
2023/05/16 09:08:52;;;;;;;31.92;25.75;;;;;;;17.79;100.00;97877.47;5052044;28;20181;-63
2023/05/16 09:11:18;;;;;;;35.80;25.98;;;;;;;17.46;100.00;97814.81;5052034;28;20231;-63
2023/05/16 09:13:43;;;;;;;33.83;24.67;;;;;;;17.74;100.00;97855.41;5052045;28;20181;-63
2023/05/16 09:16:16;;;;;;;31.05;23.83;;;;;;;17.60;100.00;97827.28;5051899;28;20205;-61
2023/05/16 09:18:43;;;;;;;36.58;25.92;;;;;;;18.08;100.00;97901.34;5051892;28;20189;-61
2023/05/16 09:21:10;;;;;;;33.28;24.73;;;;;;;17.77;100.00;97855.88;5051922;28;20180;-61
2023/05/16 09:23:36;;;;;;;30.15;24.58;;;;;;;17.93;100.00;97871.59;5051910;28;20290;-63
2023/05/16 09:26:04;;;;;;;30.70;23.80;;;;;;;17.70;100.00;97828.75;5051872;28;20261;-63
2023/05/16 09:28:30;;;;;;;33.35;24.40;;;;;;;17.76;100.00;97833.31;5051872;28;20188;-63
2023/05/16 09:30:58;;;;;;;29.92;24.98;;;;;;;17.83;100.00;97844.75;5051868;28;20173;-64
2023/05/16 09:33:25;;;;;;;30.50;24.95;;;;;;;17.46;100.00;97788.66;5051887;28;20620;-63
2023/05/16 09:35:59;;;;;;;33.15;24.60;;;;;;;17.85;100.00;97847.22;5054296;28;20219;-63
2023/05/16 09:38:26;;;;;;;30.48;25.13;;;;;;;17.47;100.00;97779.81;5055478;28;20627;-63
2023/05/16 09:40:52;;;;;;;32.97;25.08;;;;;;;17.52;100.00;97774.94;5055673;28;20651;-63
2023/05/16 09:43:20;;;;;;;33.55;25.73;;;;;;;17.99;100.00;97846.56;5055618;28;20234;-63
2023/05/16 09:45:47;;;;;;;30.92;24.85;;;;;;;17.82;100.00;97813.50;5055630;28;20267;-63
2023/05/16 09:48:14;;;;;;;33.22;24.73;;;;;;;17.56;100.00;97768.41;5055531;28;20256;-63
2023/05/16 09:50:41;;;;;;;28.05;23.73;;;;;;;17.65;100.00;97759.53;5055520;28;20521;-63
2023/05/16 09:53:07;;;;;;;31.23;23.58;;;;;;;17.98;100.00;97821.34;5055456;28;20177;-62
2023/05/16 09:55:32;;;;;;;29.67;23.85;;;;;;;17.64;100.00;97771.81;5055411;28;20263;-62
2023/05/16 09:57:58;;;;;;;31.25;24.30;;;;;;;17.65;100.00;97783.09;5055375;28;20184;-62
2023/05/16 10:00:31;;;;;;;32.63;25.13;;;;;;;17.82;100.00;97819.56;5054944;28;20914;-62
2023/05/16 10:02:57;;;;;;;32.50;25.52;;;;;;;17.99;100.00;97843.94;5055538;28;20196;-62
2023/05/16 10:05:25;;;;;;;31.50;24.15;;;;;;;18.12;100.00;97862.59;5055222;28;20184;-62
2023/05/16 10:07:55;;;;;;;32.33;24.00;;;;;;;17.86;100.00;97818.28;5055185;28;20187;-62
2023/05/16 10:10:21;;;;;;;30.23;22.35;;;;;;;17.65;100.00;97793.56;5055123;28;20170;-62
2023/05/16 10:12:47;;;;;;;27.83;22.27;;;;;;;18.10;100.00;97856.69;5054809;28;20185;-62
2023/05/16 10:15:14;;;;;;;28.63;20.73;;;;;;;18.22;100.00;97845.72;5054961;28;20201;-62
2023/05/16 10:17:42;;;;;;;29.77;23.52;;;;;;;18.27;100.00;97827.72;5054984;28;20276;-62
2023/05/16 10:20:10;;;;;;;30.88;24.08;;;;;;;18.19;100.00;97804.13;5054642;28;20591;-62
2023/05/16 10:22:42;;;;;;;27.65;23.58;;;;;;;18.50;100.00;97835.69;5054845;28;20183;-62
2023/05/16 10:25:14;;;;;;;31.38;22.95;;;;;;;18.61;100.00;97820.44;5054916;28;20161;-62
2023/05/16 10:27:41;;;;;;;25.48;22.70;;;;;;;18.53;100.00;97790.84;5054729;28;20290;-62
2023/05/16 10:30:08;;;;;;;36.95;21.33;;;;;;;18.70;100.00;97808.09;5055027;28;20169;-62
2023/05/16 10:32:35;;;;;;;30.00;21.50;;;;;;;18.79;100.00;97801.84;5054631;28;20177;-62
2023/05/16 10:35:02;;;;;;;27.80;21.60;;;;;;;18.75;100.00;97769.94;5054527;28;20224;-62
2023/05/16 10:37:30;;;;;;;31.58;20.83;;;;;;;18.99;100.00;97780.28;5054543;28;20217;-61
2023/05/16 10:39:58;;;;;;;26.40;20.83;;;;;;;19.29;100.00;97789.16;5054268;28;20671;-62
2023/05/16 10:42:23;;;;;;;23.00;20.38;;;;;;;19.09;100.00;97732.84;5054458;28;20230;-62
2023/05/16 10:44:53;;;;;;;28.73;20.48;;;;;;;19.53;100.00;97794.22;5054496;28;20173;-62
2023/05/16 10:47:19;;;;;;;32.28;22.48;;;;;;;19.59;100.00;97796.97;5051495;28;20193;-62
2023/05/16 10:49:45;;;;;;;27.38;20.50;;;;;;;19.26;100.00;97721.28;5052041;28;20286;-62
2023/05/16 10:52:12;;;;;;;24.95;19.08;;;;;;;19.56;100.00;97767.63;5051929;28;20189;-62
2023/05/16 10:54:40;;;;;;;24.92;19.80;;;;;;;19.84;100.00;97802.81;5051838;28;20276;-62
2023/05/16 10:57:16;;;;;;;24.40;19.27;;;;;;;19.96;100.00;97780.41;5051859;28;20700;-62
2023/05/16 10:59:46;;;;;;;25.75;19.38;;;;;;;20.13;100.00;97788.00;5051722;28;20197;-62
2023/05/16 11:02:21;;;;;;;23.48;19.95;;;;;;;20.10;100.00;97800.66;5051753;28;20193;-62
2023/05/16 11:04:48;;;;;;;26.00;19.67;;;;;;;19.87;100.00;97763.09;5051716;28;20184;-62
2023/05/16 11:07:16;;;;;;;22.85;18.75;;;;;;;19.85;100.00;97773.78;5051636;28;20182;-61